createdAt,value
2017-12-14T00:00:50.754Z,99.99
2017-12-14T00:01:50.716Z,99.99
2017-12-14T00:02:50.704Z,99.99
2017-12-14T00:03:50.636Z,99.99
2017-12-14T00:04:50.600Z,99.99
2017-12-14T00:05:50.560Z,99.99
2017-12-14T00:06:50.524Z,99.99
2017-12-14T00:07:50.484Z,99.99
2017-12-14T00:08:50.445Z,99.99
2017-12-14T00:09:50.401Z,99.99
2017-12-14T00:10:50.371Z,99.99
2017-12-14T00:11:50.322Z,99.99
2017-12-14T00:12:50.287Z,99.99
2017-12-14T00:13:50.271Z,99.99
2017-12-14T00:14:50.206Z,99.99
2017-12-14T00:15:50.164Z,99.99
2017-12-14T00:16:50.135Z,99.99
2017-12-14T00:17:50.086Z,99.99
2017-12-14T00:18:50.051Z,99.99
2017-12-14T00:19:50.009Z,99.99
2017-12-14T00:20:49.969Z,99.99
2017-12-14T00:21:49.932Z,99.99
2017-12-14T00:22:49.892Z,99.99
2017-12-14T00:23:49.851Z,99.99
2017-12-14T00:24:49.812Z,99.99
2017-12-14T00:25:49.773Z,99.99
2017-12-14T00:26:49.737Z,99.99
2017-12-14T00:27:49.694Z,99.99
2017-12-14T00:28:49.656Z,99.99
2017-12-14T00:29:49.615Z,99.99
2017-12-14T00:30:49.573Z,99.99
2017-12-14T00:31:49.539Z,99.99
2017-12-14T00:32:49.499Z,99.99
2017-12-14T00:33:49.458Z,99.99
2017-12-14T00:34:49.419Z,99.99
2017-12-14T00:35:49.377Z,99.99
2017-12-14T00:36:49.343Z,99.99
2017-12-14T00:37:49.303Z,99.99
2017-12-14T00:38:49.261Z,99.99
2017-12-14T00:39:49.227Z,99.99
2017-12-14T00:40:49.189Z,99.99
2017-12-14T00:41:49.168Z,99.99
2017-12-14T00:42:49.127Z,99.99
2017-12-14T00:43:49.068Z,99.99
2017-12-14T00:44:49.022Z,99.99
2017-12-14T00:45:48.985Z,99.99
2017-12-14T00:46:48.957Z,99.99
2017-12-14T00:47:48.907Z,99.99
2017-12-14T00:48:48.869Z,99.99
2017-12-14T00:49:48.849Z,99.99
2017-12-14T00:50:48.835Z,99.99
2017-12-14T00:51:48.752Z,99.99
2017-12-14T00:52:48.712Z,99.99
2017-12-14T00:53:48.673Z,99.99
2017-12-14T00:54:48.638Z,99.99
2017-12-14T00:55:48.593Z,99.99
2017-12-14T00:56:48.579Z,99.99
2017-12-14T00:57:48.514Z,99.99
2017-12-14T00:58:48.475Z,99.99
2017-12-14T00:59:48.439Z,99.99
2017-12-14T01:00:48.397Z,99.99
2017-12-14T01:01:48.359Z,99.99
2017-12-14T01:02:48.318Z,99.99
2017-12-14T01:03:48.279Z,99.99
2017-12-14T01:04:48.245Z,99.99
2017-12-14T01:05:48.200Z,99.99
2017-12-14T01:06:48.165Z,99.99
2017-12-14T01:07:48.123Z,99.99
2017-12-14T01:08:48.084Z,99.99
2017-12-14T01:09:48.045Z,99.99
2017-12-14T01:10:48.007Z,99.99
2017-12-14T01:11:47.998Z,99.99
2017-12-14T01:12:47.925Z,99.99
2017-12-14T01:13:47.900Z,99.99
2017-12-14T01:14:47.847Z,99.99
2017-12-14T01:15:47.810Z,99.99
2017-12-14T01:16:47.770Z,99.99
2017-12-14T01:17:47.733Z,99.99
2017-12-14T01:18:47.710Z,99.99
2017-12-14T01:19:48.616Z,99.99
2017-12-14T01:20:48.604Z,99.99
2017-12-14T01:21:47.573Z,99.99
2017-12-14T01:22:47.537Z,99.99
2017-12-14T01:23:47.493Z,99.99
2017-12-14T01:24:47.460Z,99.99
2017-12-14T01:25:47.417Z,99.99
2017-12-14T01:26:47.380Z,99.99
2017-12-14T01:27:47.369Z,99.99
2017-12-14T01:28:47.303Z,99.99
2017-12-14T01:29:47.260Z,99.99
2017-12-14T01:30:47.220Z,99.99
2017-12-14T01:31:47.193Z,99.99
2017-12-14T01:32:47.144Z,99.99
2017-12-14T01:33:47.122Z,99.99
2017-12-14T01:34:47.066Z,99.99
2017-12-14T01:35:47.028Z,99.99
2017-12-14T01:36:46.987Z,99.99
2017-12-14T01:37:46.950Z,99.99
2017-12-14T01:38:46.910Z,99.99
2017-12-14T01:39:46.897Z,99.99
2017-12-14T01:40:46.834Z,99.99
2017-12-14T01:41:46.792Z,99.99
2017-12-14T01:42:46.758Z,99.99
2017-12-14T01:43:46.725Z,99.99
2017-12-14T01:44:46.677Z,99.99
2017-12-14T01:45:46.639Z,99.99
2017-12-14T01:46:46.599Z,99.99
2017-12-14T01:47:46.560Z,99.99
2017-12-14T01:48:46.520Z,99.99
2017-12-14T01:49:46.510Z,99.99
2017-12-14T01:50:46.468Z,99.99
2017-12-14T01:51:46.402Z,99.99
2017-12-14T01:52:46.364Z,99.99
2017-12-14T01:53:46.327Z,99.99
2017-12-14T01:54:47.214Z,99.99
2017-12-14T01:55:46.249Z,99.99
2017-12-14T01:56:46.209Z,99.99
2017-12-14T01:57:46.170Z,99.99
2017-12-14T01:58:46.130Z,99.99
2017-12-14T01:59:46.094Z,99.99
2017-12-14T02:00:46.052Z,99.99
2017-12-14T02:01:46.012Z,99.99
2017-12-14T02:02:45.973Z,99.99
2017-12-14T02:03:45.934Z,99.99
2017-12-14T02:04:45.899Z,99.99
2017-12-14T02:05:45.860Z,99.99
2017-12-14T02:06:45.819Z,99.99
2017-12-14T02:07:45.777Z,99.99
2017-12-14T02:08:46.535Z,99.99
2017-12-14T02:09:45.717Z,99.99
2017-12-14T02:10:45.661Z,99.99
2017-12-14T02:11:45.626Z,99.63
2017-12-14T02:12:45.589Z,99.99
2017-12-14T02:13:45.545Z,99.99
2017-12-14T02:14:45.524Z,99.99
2017-12-14T02:15:45.467Z,99.99
2017-12-14T02:16:45.440Z,99.99
2017-12-14T02:17:45.390Z,99.99
2017-12-14T02:18:45.350Z,99.99
2017-12-14T02:19:45.313Z,99.99
2017-12-14T02:20:45.276Z,99.99
2017-12-14T02:21:45.233Z,99.99
2017-12-14T02:22:45.197Z,99.99
2017-12-14T02:23:45.154Z,99.99
2017-12-14T02:24:45.116Z,99.99
2017-12-14T02:25:45.077Z,99.99
2017-12-14T02:26:45.036Z,99.99
2017-12-14T02:27:44.997Z,99.99
2017-12-14T02:28:44.960Z,99.99
2017-12-14T02:29:44.920Z,99.99
2017-12-14T02:30:44.878Z,99.99
2017-12-14T02:31:45.398Z,99.99
2017-12-14T02:32:44.800Z,99.99
2017-12-14T02:33:44.761Z,99.99
2017-12-14T02:34:44.718Z,99.99
2017-12-14T02:35:44.677Z,99.99
2017-12-14T02:36:44.636Z,99.99
2017-12-14T02:37:44.597Z,99.99
2017-12-14T02:38:44.556Z,99.99
2017-12-14T02:39:44.574Z,99.99
2017-12-14T02:40:44.479Z,99.99
2017-12-14T02:41:47.168Z,99.99
2017-12-14T02:42:44.400Z,99.99
2017-12-14T02:43:44.385Z,99.99
2017-12-14T02:44:44.316Z,99.99
2017-12-14T02:45:44.274Z,99.99
2017-12-14T02:46:44.232Z,99.99
2017-12-14T02:47:44.196Z,99.99
2017-12-14T02:48:44.154Z,99.99
2017-12-14T02:49:44.115Z,99.99
2017-12-14T02:50:44.071Z,99.99
2017-12-14T02:51:44.031Z,99.99
2017-12-14T02:52:44.028Z,99.99
2017-12-14T02:53:43.949Z,99.99
2017-12-14T02:54:43.909Z,99.99
2017-12-14T02:55:43.869Z,99.99
2017-12-14T02:56:43.826Z,99.99
2017-12-14T02:57:43.785Z,99.99
2017-12-14T02:58:43.748Z,99.99
2017-12-14T02:59:43.703Z,99.99
2017-12-14T03:00:43.662Z,99.99
2017-12-14T03:01:43.620Z,99.99
2017-12-14T03:02:43.580Z,99.99
2017-12-14T03:03:43.540Z,99.99
2017-12-14T03:04:43.500Z,99.99
2017-12-14T03:05:43.462Z,99.99
2017-12-14T03:06:43.417Z,99.99
2017-12-14T03:07:43.376Z,99.99
2017-12-14T03:08:43.337Z,99.99
2017-12-14T03:09:43.318Z,99.99
2017-12-14T03:10:43.615Z,99.99
2017-12-14T03:11:43.213Z,99.99
2017-12-14T03:12:43.171Z,99.99
2017-12-14T03:13:43.679Z,99.99
2017-12-14T03:14:43.125Z,99.99
2017-12-14T03:15:43.049Z,99.99
2017-12-14T03:16:43.008Z,99.99
2017-12-14T03:17:42.992Z,99.99
2017-12-14T03:18:42.922Z,99.99
2017-12-14T03:19:42.920Z,99.99
2017-12-14T03:20:42.843Z,99.99
2017-12-14T03:21:42.803Z,99.99
2017-12-14T03:22:42.762Z,99.99
2017-12-14T03:23:42.723Z,99.99
2017-12-14T03:24:42.680Z,99.99
2017-12-14T03:25:42.638Z,99.99
2017-12-14T03:26:42.597Z,99.99
2017-12-14T03:27:42.563Z,99.99
2017-12-14T03:28:42.517Z,99.99
2017-12-14T03:29:42.477Z,99.99
2017-12-14T03:30:42.438Z,99.99
2017-12-14T03:31:42.398Z,99.99
2017-12-14T03:32:42.355Z,99.99
2017-12-14T03:33:42.316Z,99.99
2017-12-14T03:34:42.273Z,99.99
2017-12-14T03:35:42.232Z,99.99
2017-12-14T03:36:42.194Z,99.99
2017-12-14T03:37:42.149Z,99.99
2017-12-14T03:38:42.110Z,99.99
2017-12-14T03:39:42.072Z,99.99
2017-12-14T03:40:42.051Z,99.99
2017-12-14T03:41:41.988Z,99.99
2017-12-14T03:42:41.948Z,99.99
2017-12-14T03:43:41.946Z,99.99
2017-12-14T03:44:41.865Z,99.99
2017-12-14T03:45:41.839Z,99.99
2017-12-14T03:46:41.790Z,99.99
2017-12-14T03:47:41.744Z,99.99
2017-12-14T03:48:41.730Z,99.99
2017-12-14T03:49:41.661Z,99.99
2017-12-14T03:50:41.620Z,99.99
2017-12-14T03:51:41.824Z,99.99
2017-12-14T03:52:41.542Z,99.99
2017-12-14T03:53:41.499Z,99.99
2017-12-14T03:54:41.461Z,99.99
2017-12-14T03:55:41.434Z,99.99
2017-12-14T03:56:41.394Z,99.99
2017-12-14T03:57:41.335Z,99.99
2017-12-14T03:58:41.297Z,99.99
2017-12-14T03:59:41.257Z,99.99
2017-12-14T04:00:41.216Z,99.99
2017-12-14T04:01:41.173Z,99.99
2017-12-14T04:02:41.133Z,99.99
2017-12-14T04:03:41.094Z,99.99
2017-12-14T04:04:41.064Z,99.99
2017-12-14T04:05:41.011Z,99.99
2017-12-14T04:06:40.972Z,99.99
2017-12-14T04:07:40.930Z,99.99
2017-12-14T04:08:40.889Z,99.99
2017-12-14T04:09:40.846Z,99.99
2017-12-14T04:10:40.808Z,99.99
2017-12-14T04:11:40.768Z,99.99
2017-12-14T04:12:40.726Z,99.99
2017-12-14T04:13:40.687Z,99.99
2017-12-14T04:14:40.643Z,99.99
2017-12-14T04:15:40.603Z,99.99
2017-12-14T04:16:40.562Z,99.99
2017-12-14T04:17:40.520Z,99.99
2017-12-14T04:18:40.495Z,99.99
2017-12-14T04:19:40.463Z,99.99
2017-12-14T04:20:40.398Z,99.99
2017-12-14T04:21:40.378Z,99.99
2017-12-14T04:22:40.646Z,99.99
2017-12-14T04:23:40.274Z,99.99
2017-12-14T04:24:40.238Z,99.99
2017-12-14T04:25:40.198Z,99.99
2017-12-14T04:26:40.154Z,99.99
2017-12-14T04:27:40.112Z,99.99
2017-12-14T04:28:40.077Z,99.99
2017-12-14T04:29:40.034Z,99.99
2017-12-14T04:30:39.991Z,99.99
2017-12-14T04:31:39.948Z,99.99
2017-12-14T04:32:39.907Z,99.99
2017-12-14T04:33:39.868Z,99.99
2017-12-14T04:34:39.826Z,99.99
2017-12-14T04:35:39.784Z,99.99
2017-12-14T04:36:39.747Z,99.99
2017-12-14T04:37:39.720Z,99.99
2017-12-14T04:38:39.665Z,99.99
2017-12-14T04:39:39.621Z,99.99
2017-12-14T04:40:39.584Z,99.99
2017-12-14T04:41:39.576Z,99.99
2017-12-14T04:42:39.498Z,99.99
2017-12-14T04:43:39.509Z,99.99
2017-12-14T04:44:39.445Z,99.99
2017-12-14T04:45:39.379Z,99.99
2017-12-14T04:46:39.334Z,99.99
2017-12-14T04:47:39.293Z,99.99
2017-12-14T04:48:39.259Z,99.99
2017-12-14T04:49:39.212Z,99.99
2017-12-14T04:50:39.171Z,99.99
2017-12-14T04:51:39.131Z,99.99
2017-12-14T04:52:39.089Z,99.99
2017-12-14T04:53:39.054Z,99.99
2017-12-14T04:54:39.008Z,99.99
2017-12-14T04:55:38.967Z,99.99
2017-12-14T04:56:38.926Z,99.99
2017-12-14T04:57:38.884Z,99.99
2017-12-14T04:58:38.844Z,99.99
2017-12-14T04:59:38.803Z,99.99
2017-12-14T05:00:38.762Z,99.99
2017-12-14T05:01:38.719Z,99.99
2017-12-14T05:02:38.683Z,99.99
2017-12-14T05:03:38.639Z,99.99
2017-12-14T05:04:38.599Z,99.99
2017-12-14T05:05:38.556Z,99.99
2017-12-14T05:06:38.516Z,99.99
2017-12-14T05:07:38.474Z,99.99
2017-12-14T05:08:38.435Z,99.99
2017-12-14T05:09:38.391Z,99.99
2017-12-14T05:10:38.351Z,99.99
2017-12-14T05:11:38.311Z,99.99
2017-12-14T05:12:38.304Z,99.99
2017-12-14T05:13:38.231Z,99.99
2017-12-14T05:14:38.190Z,99.99
2017-12-14T05:15:38.147Z,99.99
2017-12-14T05:16:38.109Z,99.99
2017-12-14T05:17:38.315Z,99.99
2017-12-14T05:18:38.027Z,99.99
2017-12-14T05:19:37.990Z,99.99
2017-12-14T05:20:37.943Z,99.99
2017-12-14T05:21:37.905Z,99.99
2017-12-14T05:22:37.863Z,99.99
2017-12-14T05:23:37.822Z,99.99
2017-12-14T05:24:37.780Z,99.99
2017-12-14T05:25:37.740Z,99.99
2017-12-14T05:26:37.712Z,99.99
2017-12-14T05:27:37.656Z,99.99
2017-12-14T05:28:37.617Z,99.99
2017-12-14T05:29:37.575Z,99.99
2017-12-14T05:30:37.535Z,99.99
2017-12-14T05:31:37.495Z,99.99
2017-12-14T05:32:37.456Z,99.99
2017-12-14T05:33:37.414Z,99.99
2017-12-14T05:34:37.370Z,99.99
2017-12-14T05:35:37.349Z,99.99
2017-12-14T05:36:37.291Z,99.99
2017-12-14T05:37:37.247Z,99.99
2017-12-14T05:38:37.210Z,99.99
2017-12-14T05:39:37.387Z,99.99
2017-12-14T05:40:37.128Z,99.99
2017-12-14T05:41:37.108Z,99.99
2017-12-14T05:42:37.730Z,99.99
2017-12-14T05:43:37.002Z,99.99
2017-12-14T05:44:36.984Z,99.99
2017-12-14T05:45:36.926Z,99.99
2017-12-14T05:46:36.905Z,99.99
2017-12-14T05:47:36.844Z,99.99
2017-12-14T05:48:36.821Z,99.99
2017-12-14T05:49:36.936Z,99.99
2017-12-14T05:50:36.744Z,99.99
2017-12-14T05:51:36.683Z,99.99
2017-12-14T05:52:36.639Z,99.99
2017-12-14T05:53:36.605Z,99.99
2017-12-14T05:54:36.555Z,99.99
2017-12-14T05:55:36.545Z,99.99
2017-12-14T05:56:36.476Z,99.99
2017-12-14T05:57:37.166Z,99.99
2017-12-14T05:58:36.395Z,99.99
2017-12-14T05:59:36.355Z,99.99
2017-12-14T06:00:36.317Z,99.99
2017-12-14T06:01:36.272Z,99.99
2017-12-14T06:02:36.251Z,99.99
2017-12-14T06:03:36.199Z,99.99
2017-12-14T06:04:36.151Z,99.99
2017-12-14T06:05:36.114Z,99.99
2017-12-14T06:06:36.121Z,99.99
2017-12-14T06:07:36.029Z,99.99
2017-12-14T06:08:35.992Z,99.99
2017-12-14T06:09:35.948Z,99.99
2017-12-14T06:10:35.934Z,99.99
2017-12-14T06:11:35.884Z,99.99
2017-12-14T06:12:35.827Z,99.99
2017-12-14T06:13:35.786Z,99.99
2017-12-14T06:14:35.746Z,99.99
2017-12-14T06:15:35.705Z,99.99
2017-12-14T06:16:35.671Z,99.63
2017-12-14T06:17:35.622Z,99.99
2017-12-14T06:18:35.606Z,99.99
2017-12-14T06:19:35.543Z,99.99
2017-12-14T06:20:35.503Z,99.44
2017-12-14T06:21:35.462Z,99.15
2017-12-14T06:22:35.417Z,98.68
2017-12-14T06:23:35.381Z,98.49
2017-12-14T06:24:35.341Z,99.06
2017-12-14T06:25:35.312Z,99.15
2017-12-14T06:26:35.262Z,99.72
2017-12-14T06:27:35.218Z,99.53
2017-12-14T06:28:35.190Z,99.91
2017-12-14T06:29:35.139Z,98.39
2017-12-14T06:30:35.123Z,98.49
2017-12-14T06:31:35.057Z,98.11
2017-12-14T06:32:35.017Z,98.68
2017-12-14T06:33:34.977Z,98.87
2017-12-14T06:34:34.933Z,98.77
2017-12-14T06:35:34.899Z,98.77
2017-12-14T06:36:34.854Z,99.53
2017-12-14T06:37:34.812Z,98.68
2017-12-14T06:38:34.782Z,98.58
2017-12-14T06:39:34.737Z,97.73
2017-12-14T06:40:35.079Z,97.73
2017-12-14T06:41:35.056Z,97.83
2017-12-14T06:42:34.613Z,98.02
2017-12-14T06:43:34.575Z,98.21
2017-12-14T06:44:34.533Z,98.49
2017-12-14T06:45:34.494Z,99.06
2017-12-14T06:46:34.453Z,98.77
2017-12-14T06:47:35.058Z,98.87
2017-12-14T06:48:34.374Z,98.68
2017-12-14T06:49:34.344Z,99.06
2017-12-14T06:50:34.336Z,98.21
2017-12-14T06:51:34.248Z,98.02
2017-12-14T06:52:34.213Z,98.58
2017-12-14T06:53:34.166Z,98.21
2017-12-14T06:54:34.289Z,98.77
2017-12-14T06:55:34.110Z,99.25
2017-12-14T06:56:34.047Z,98.49
2017-12-14T06:57:34.010Z,97.54
2017-12-14T06:58:33.983Z,97.16
2017-12-14T06:59:33.925Z,97.54
2017-12-14T07:00:33.885Z,97.54
2017-12-14T07:01:33.860Z,98.21
2017-12-14T07:02:33.830Z,97.64
2017-12-14T07:03:33.768Z,97.83
2017-12-14T07:04:33.739Z,97.16
2017-12-14T07:05:33.684Z,96.69
2017-12-14T07:06:33.649Z,97.45
2017-12-14T07:07:33.605Z,97.16
2017-12-14T07:08:33.696Z,97.45
2017-12-14T07:09:33.529Z,97.92
2017-12-14T07:10:33.483Z,98.68
2017-12-14T07:11:33.440Z,98.49
2017-12-14T07:12:33.402Z,97.83
2017-12-14T07:13:33.362Z,98.49
2017-12-14T07:14:33.321Z,98.58
2017-12-14T07:15:33.314Z,98.30
2017-12-14T07:16:33.242Z,97.92
2017-12-14T07:17:33.199Z,98.21
2017-12-14T07:18:33.161Z,98.02
2017-12-14T07:19:33.125Z,97.73
2017-12-14T07:20:33.078Z,97.54
2017-12-14T07:21:33.046Z,97.73
2017-12-14T07:22:32.998Z,97.92
2017-12-14T07:23:32.960Z,97.26
2017-12-14T07:24:32.917Z,97.16
2017-12-14T07:25:32.880Z,96.69
2017-12-14T07:26:32.835Z,96.69
2017-12-14T07:27:32.794Z,97.26
2017-12-14T07:28:32.771Z,96.69
2017-12-14T07:29:32.713Z,96.97
2017-12-14T07:30:32.677Z,97.07
2017-12-14T07:31:32.637Z,96.41
2017-12-14T07:32:32.636Z,96.12
2017-12-14T07:33:32.571Z,96.12
2017-12-14T07:34:32.545Z,94.70
2017-12-14T07:35:32.476Z,94.70
2017-12-14T07:36:32.437Z,94.51
2017-12-14T07:37:32.392Z,94.74
2017-12-14T07:38:32.356Z,94.70
2017-12-14T07:39:32.342Z,94.74
2017-12-14T07:40:32.284Z,94.84
2017-12-14T07:41:32.276Z,94.65
2017-12-14T07:42:32.199Z,94.37
2017-12-14T07:43:32.644Z,95.41
2017-12-14T07:44:32.116Z,95.22
2017-12-14T07:45:32.076Z,95.12
2017-12-14T07:46:32.035Z,95.22
2017-12-14T07:47:32.011Z,95.69
2017-12-14T07:48:31.964Z,96.08
2017-12-14T07:49:31.915Z,96.36
2017-12-14T07:50:31.876Z,96.64
2017-12-14T07:51:31.942Z,96.55
2017-12-14T07:52:31.939Z,96.26
2017-12-14T07:53:31.758Z,97.59
2017-12-14T07:54:31.720Z,97.78
2017-12-14T07:55:31.682Z,97.97
2017-12-14T07:56:31.639Z,98.16
2017-12-14T07:57:31.598Z,98.07
2017-12-14T07:58:31.588Z,97.88
2017-12-14T07:59:31.523Z,98.92
2017-12-14T08:00:31.482Z,98.92
2017-12-14T08:01:31.442Z,98.82
2017-12-14T08:02:31.404Z,99.30
2017-12-14T08:03:31.362Z,98.82
2017-12-14T08:04:31.322Z,99.58
2017-12-14T08:05:31.283Z,99.99
2017-12-14T08:06:31.268Z,99.99
2017-12-14T08:07:31.216Z,99.68
2017-12-14T08:08:31.174Z,99.99
2017-12-14T08:09:31.134Z,99.99
2017-12-14T08:10:31.092Z,99.99
2017-12-14T08:11:31.044Z,99.99
2017-12-14T08:12:31.011Z,99.99
2017-12-14T08:13:30.969Z,99.58
2017-12-14T08:14:30.933Z,99.58
2017-12-14T08:15:30.897Z,99.01
2017-12-14T08:16:30.851Z,98.82
2017-12-14T08:17:30.812Z,98.73
2017-12-14T08:18:30.797Z,98.07
2017-12-14T08:19:30.760Z,98.73
2017-12-14T08:20:30.699Z,98.25
2017-12-14T08:21:30.666Z,97.69
2017-12-14T08:22:30.700Z,98.07
2017-12-14T08:23:30.699Z,98.16
2017-12-14T08:24:30.568Z,98.16
2017-12-14T08:25:30.511Z,98.07
2017-12-14T08:26:30.478Z,97.88
2017-12-14T08:27:30.443Z,97.88
2017-12-14T08:28:30.401Z,98.25
2017-12-14T08:29:30.378Z,98.16
2017-12-14T08:30:30.329Z,97.88
2017-12-14T08:31:30.292Z,98.92
2017-12-14T08:32:30.249Z,98.82
2017-12-14T08:33:30.215Z,98.07
2017-12-14T08:34:30.177Z,98.82
2017-12-14T08:35:30.140Z,99.77
2017-12-14T08:36:30.100Z,99.49
2017-12-14T08:37:30.065Z,99.87
2017-12-14T08:38:30.025Z,99.99
2017-12-14T08:39:29.993Z,99.99
2017-12-14T08:40:29.951Z,99.99
2017-12-14T08:41:29.911Z,99.99
2017-12-14T08:42:30.583Z,99.99
2017-12-14T08:43:30.582Z,99.99
2017-12-14T08:44:29.799Z,99.99
2017-12-14T08:45:29.758Z,99.99
2017-12-14T08:46:29.717Z,99.99
2017-12-14T08:47:29.676Z,99.99
2017-12-14T08:48:29.640Z,99.99
2017-12-14T08:49:29.600Z,99.99
2017-12-14T08:50:29.571Z,99.99
2017-12-14T08:51:29.530Z,99.99
2017-12-14T08:52:29.488Z,99.99
2017-12-14T08:53:29.570Z,99.99
2017-12-14T08:54:29.412Z,99.99
2017-12-14T08:55:29.392Z,99.99
2017-12-14T08:56:29.327Z,99.99
2017-12-14T08:57:29.294Z,99.99
2017-12-14T08:58:29.256Z,99.99
2017-12-14T08:59:29.211Z,99.99
2017-12-14T09:00:29.169Z,99.99
2017-12-14T09:01:29.131Z,99.99
2017-12-14T09:02:29.095Z,99.99
2017-12-14T09:03:29.057Z,99.99
2017-12-14T09:04:29.016Z,99.99
2017-12-14T09:05:28.976Z,99.99
2017-12-14T09:06:28.939Z,99.99
2017-12-14T09:07:28.901Z,99.99
2017-12-14T09:08:28.862Z,99.99
2017-12-14T09:09:28.829Z,99.99
2017-12-14T09:10:28.802Z,99.99
2017-12-14T09:11:28.757Z,99.82
2017-12-14T09:12:28.709Z,99.54
2017-12-14T09:13:28.670Z,98.87
2017-12-14T09:14:28.632Z,99.63
2017-12-14T09:15:28.593Z,99.06
2017-12-14T09:16:28.555Z,98.40
2017-12-14T09:17:28.517Z,98.11
2017-12-14T09:18:28.480Z,98.02
2017-12-14T09:19:28.459Z,98.68
2017-12-14T09:20:28.409Z,98.68
2017-12-14T09:21:28.368Z,98.97
2017-12-14T09:22:28.534Z,99.16
2017-12-14T09:23:28.289Z,99.49
2017-12-14T09:24:28.309Z,99.99
2017-12-14T09:25:28.210Z,99.99
2017-12-14T09:26:28.176Z,99.77
2017-12-14T09:27:28.135Z,99.99
2017-12-14T09:28:28.100Z,99.99
2017-12-14T09:29:28.067Z,99.99
2017-12-14T09:30:28.019Z,99.99
2017-12-14T09:31:27.981Z,99.99
2017-12-14T09:32:27.943Z,99.99
2017-12-14T09:33:27.923Z,99.99
2017-12-14T09:34:27.886Z,99.99
2017-12-14T09:35:27.856Z,99.99
2017-12-14T09:36:27.801Z,99.99
2017-12-14T09:37:27.770Z,99.99
2017-12-14T09:38:27.719Z,99.99
2017-12-14T09:39:27.676Z,99.99
2017-12-14T09:40:27.633Z,99.99
2017-12-14T09:41:27.638Z,99.99
2017-12-14T09:42:27.585Z,99.99
2017-12-14T09:43:27.517Z,99.99
2017-12-14T09:44:27.481Z,99.99
2017-12-14T09:45:27.440Z,99.99
2017-12-14T09:46:27.403Z,99.99
2017-12-14T09:47:27.366Z,99.99
2017-12-14T09:48:27.328Z,99.99
2017-12-14T09:49:27.285Z,99.99
2017-12-14T09:50:27.245Z,99.99
2017-12-14T09:51:27.206Z,99.99
2017-12-14T09:52:27.169Z,99.99
2017-12-14T09:53:27.132Z,99.99
2017-12-14T09:54:27.093Z,99.99
2017-12-14T09:55:27.058Z,99.99
2017-12-14T09:56:27.018Z,99.99
2017-12-14T09:57:26.975Z,99.99
2017-12-14T09:58:26.935Z,99.99
2017-12-14T09:59:26.895Z,99.99
2017-12-14T10:00:26.861Z,99.99
2017-12-14T10:01:26.833Z,99.99
2017-12-14T10:02:26.782Z,99.99
2017-12-14T10:03:26.750Z,99.99
2017-12-14T10:04:26.702Z,99.99
2017-12-14T10:05:26.664Z,99.99
2017-12-14T10:06:26.627Z,99.99
2017-12-14T10:07:26.592Z,99.99
2017-12-14T10:08:26.547Z,99.99
2017-12-14T10:09:26.509Z,99.99
2017-12-14T10:10:26.471Z,99.99
2017-12-14T10:11:26.433Z,99.99
2017-12-14T10:12:26.393Z,99.99
2017-12-14T10:13:26.354Z,99.99
2017-12-14T10:14:26.324Z,99.99
2017-12-14T10:15:26.284Z,99.99
2017-12-14T10:16:26.236Z,99.99
2017-12-14T10:17:26.204Z,99.99
2017-12-14T10:18:26.181Z,99.99
2017-12-14T10:19:26.131Z,99.99
2017-12-14T10:20:26.086Z,99.99
2017-12-14T10:21:26.062Z,99.99
2017-12-14T10:22:26.002Z,99.99
2017-12-14T10:23:25.967Z,99.99
2017-12-14T10:24:25.927Z,99.99
2017-12-14T10:25:25.912Z,99.99
2017-12-14T10:26:25.852Z,99.99
2017-12-14T10:27:25.812Z,99.99
2017-12-14T10:28:25.773Z,99.99
2017-12-14T10:29:25.745Z,99.99
2017-12-14T10:30:25.691Z,99.99
2017-12-14T10:31:25.653Z,99.99
2017-12-14T10:32:25.616Z,99.99
2017-12-14T10:33:25.575Z,99.99
2017-12-14T10:34:25.556Z,99.99
2017-12-14T10:35:25.496Z,99.99
2017-12-14T10:36:25.471Z,99.99
2017-12-14T10:37:25.421Z,99.99
2017-12-14T10:38:25.380Z,99.99
2017-12-14T10:39:25.342Z,99.99
2017-12-14T10:40:25.304Z,99.99
2017-12-14T10:41:25.265Z,99.99
2017-12-14T10:42:25.223Z,99.99
2017-12-14T10:43:25.188Z,99.99
2017-12-14T10:44:25.155Z,99.99
2017-12-14T10:45:25.110Z,99.99
2017-12-14T10:46:25.072Z,99.99
2017-12-14T10:47:25.064Z,99.99
2017-12-14T10:48:24.992Z,99.99
2017-12-14T10:49:24.981Z,99.99
2017-12-14T10:50:24.911Z,99.99
2017-12-14T10:51:24.878Z,99.99
2017-12-14T10:52:24.835Z,99.99
2017-12-14T10:53:24.847Z,99.99
2017-12-14T10:54:24.760Z,99.99
2017-12-14T10:55:24.721Z,99.99
2017-12-14T10:56:24.703Z,99.99
2017-12-14T10:57:25.175Z,99.99
2017-12-14T10:58:24.615Z,99.99
2017-12-14T10:59:24.568Z,99.99
2017-12-14T11:00:24.523Z,99.99
2017-12-14T11:01:24.486Z,99.99
2017-12-14T11:02:24.447Z,99.99
2017-12-14T11:03:24.462Z,99.99
2017-12-14T11:04:24.371Z,99.99
2017-12-14T11:05:24.331Z,99.99
2017-12-14T11:06:24.291Z,99.99
2017-12-14T11:07:24.254Z,99.99
2017-12-14T11:08:24.252Z,99.99
2017-12-14T11:09:24.209Z,99.99
2017-12-14T11:10:24.154Z,99.99
2017-12-14T11:11:24.096Z,99.99
2017-12-14T11:12:24.058Z,99.99
2017-12-14T11:13:24.019Z,99.99
2017-12-14T11:14:23.976Z,99.99
2017-12-14T11:15:23.940Z,99.99
2017-12-14T11:16:23.903Z,99.99
2017-12-14T11:17:23.882Z,99.99
2017-12-14T11:18:23.821Z,99.99
2017-12-14T11:19:23.813Z,99.99
2017-12-14T11:20:23.744Z,99.99
2017-12-14T11:21:23.703Z,99.99
2017-12-14T11:22:23.664Z,99.99
2017-12-14T11:23:23.634Z,99.99
2017-12-14T11:24:23.583Z,99.99
2017-12-14T11:25:23.543Z,99.99
2017-12-14T11:26:23.502Z,99.99
2017-12-14T11:27:23.466Z,99.99
2017-12-14T11:28:23.432Z,99.99
2017-12-14T11:29:23.385Z,99.99
2017-12-14T11:30:23.354Z,99.99
2017-12-14T11:31:23.311Z,99.99
2017-12-14T11:32:23.274Z,99.99
2017-12-14T11:33:23.229Z,99.99
2017-12-14T11:34:23.188Z,99.99
2017-12-14T11:35:23.152Z,99.99
2017-12-14T11:36:23.112Z,99.99
2017-12-14T11:37:23.072Z,99.99
2017-12-14T11:38:23.040Z,99.99
2017-12-14T11:39:22.991Z,99.99
2017-12-14T11:40:23.111Z,99.99
2017-12-14T11:41:22.913Z,99.99
2017-12-14T11:42:22.872Z,99.99
2017-12-14T11:43:22.834Z,99.99
2017-12-14T11:44:22.801Z,99.99
2017-12-14T11:45:22.755Z,99.99
2017-12-14T11:46:22.766Z,99.99
2017-12-14T11:47:22.680Z,99.99
2017-12-14T11:48:22.640Z,99.99
2017-12-14T11:49:22.599Z,99.99
2017-12-14T11:50:22.559Z,99.99
2017-12-14T11:51:22.585Z,99.99
2017-12-14T11:52:22.487Z,99.99
2017-12-14T11:53:22.445Z,99.99
2017-12-14T11:54:22.606Z,99.99
2017-12-14T11:55:22.371Z,99.99
2017-12-14T11:56:22.324Z,99.99
2017-12-14T11:57:22.288Z,99.99
2017-12-14T11:58:22.247Z,99.99
2017-12-14T11:59:22.206Z,99.99
2017-12-14T12:00:22.170Z,99.99
2017-12-14T12:01:22.131Z,99.99
2017-12-14T12:02:22.090Z,99.99
2017-12-14T12:03:22.058Z,99.99
2017-12-14T12:04:22.011Z,99.99
2017-12-14T12:05:22.158Z,99.99
2017-12-14T12:06:21.932Z,99.99
2017-12-14T12:07:21.903Z,99.99
2017-12-14T12:08:21.856Z,99.99
2017-12-14T12:09:21.816Z,99.99
2017-12-14T12:10:21.790Z,99.99
2017-12-14T12:11:21.737Z,99.99
2017-12-14T12:12:21.700Z,99.99
2017-12-14T12:13:21.658Z,99.99
2017-12-14T12:14:21.625Z,99.99
2017-12-14T12:15:21.580Z,99.99
2017-12-14T12:16:21.543Z,99.99
2017-12-14T12:17:21.501Z,99.99
2017-12-14T12:18:21.460Z,99.99
2017-12-14T12:19:21.423Z,99.99
2017-12-14T12:20:21.386Z,99.99
2017-12-14T12:21:21.350Z,99.99
2017-12-14T12:22:21.306Z,99.99
2017-12-14T12:23:21.267Z,99.99
2017-12-14T12:24:21.228Z,99.99
2017-12-14T12:25:21.188Z,99.99
2017-12-14T12:26:21.146Z,99.99
2017-12-14T12:27:21.889Z,99.99
2017-12-14T12:28:21.583Z,99.99
2017-12-14T12:29:21.057Z,99.99
2017-12-14T12:30:20.994Z,99.99
2017-12-14T12:31:20.952Z,99.99
2017-12-14T12:32:20.914Z,99.99
2017-12-14T12:33:20.885Z,99.99
2017-12-14T12:34:20.838Z,99.99
2017-12-14T12:35:20.796Z,99.99
2017-12-14T12:36:20.762Z,99.99
2017-12-14T12:37:20.719Z,99.99
2017-12-14T12:38:20.683Z,99.99
2017-12-14T12:39:20.641Z,99.99
2017-12-14T12:40:20.603Z,99.99
2017-12-14T12:41:20.564Z,99.99
2017-12-14T12:42:20.524Z,99.99
2017-12-14T12:43:20.485Z,99.99
2017-12-14T12:44:20.446Z,99.99
2017-12-14T12:45:20.409Z,99.99
2017-12-14T12:46:20.367Z,99.99
2017-12-14T12:47:20.329Z,99.99
2017-12-14T12:48:20.313Z,99.99
2017-12-14T12:49:20.257Z,99.99
2017-12-14T12:50:20.210Z,99.99
2017-12-14T12:51:20.173Z,99.99
2017-12-14T12:52:20.133Z,99.99